Time;durP1;ratioP1;P1;durP2;ratioP2;P2;SDS_P1;SDS_P2;PMS_P1;PMS_P2;Temp;Humidity;BMP_temperature;BMP_pressure;BME280_temperature;BME280_humidity;BME280_pressure;Samples;Min_cycle;Max_cycle;Signal;HPM_P1;HPM_P2
2022/10/15 00:01:57;;;;;;;8.05;4.88;;;;;;;13.40;100.00;99869.59;5174277;28;20034;-73
2022/10/15 00:04:29;;;;;;;7.30;4.60;;;;;;;13.37;100.00;99864.53;5174221;28;20476;-73
2022/10/15 00:07:00;;;;;;;8.15;4.88;;;;;;;13.33;100.00;99867.41;5180854;28;20030;-74
2022/10/15 00:09:30;;;;;;;7.70;4.20;;;;;;;13.32;100.00;99865.72;5176269;28;20061;-73
2022/10/15 00:12:00;;;;;;;6.20;4.70;;;;;;;13.33;100.00;99863.03;5178033;28;20037;-74
2022/10/15 00:14:30;;;;;;;8.05;5.05;;;;;;;13.37;100.00;99871.59;5180634;28;20095;-73
2022/10/15 00:17:01;;;;;;;8.48;4.95;;;;;;;13.36;100.00;99862.00;5180535;28;20037;-74
2022/10/15 00:19:31;;;;;;;7.40;4.65;;;;;;;13.37;100.00;99867.16;5180686;28;20099;-73
2022/10/15 00:22:01;;;;;;;7.10;5.55;;;;;;;13.41;100.00;99867.84;5162779;28;20391;-73
2022/10/15 00:24:32;;;;;;;8.82;5.15;;;;;;;13.43;100.00;99855.47;5180562;28;20033;-73
2022/10/15 00:27:02;;;;;;;5.80;4.63;;;;;;;13.49;100.00;99858.59;5179965;28;20038;-73
2022/10/15 00:29:32;;;;;;;9.38;5.07;;;;;;;13.46;100.00;99860.53;5153992;28;20036;-74
2022/10/15 00:32:03;;;;;;;7.22;5.10;;;;;;;13.45;100.00;99856.22;5176074;28;20041;-74
2022/10/15 00:34:33;;;;;;;6.38;4.78;;;;;;;13.52;100.00;99855.78;5159199;28;20564;-73
2022/10/15 00:37:03;;;;;;;8.07;4.70;;;;;;;13.56;100.00;99851.19;5177769;28;20121;-73
2022/10/15 00:39:35;;;;;;;8.02;5.30;;;;;;;13.52;100.00;99857.53;5175269;28;20033;-74
2022/10/15 00:42:05;;;;;;;5.68;4.40;;;;;;;13.51;100.00;99850.59;5177810;28;20038;-73
2022/10/15 00:44:36;;;;;;;7.82;5.07;;;;;;;13.71;100.00;99853.75;5180193;28;20523;-73
2022/10/15 00:47:21;;;;;;;8.88;4.78;;;;;;;13.66;100.00;99850.56;5179968;28;20045;-74
2022/10/15 00:50:00;;;;;;;6.00;4.47;;;;;;;13.60;100.00;99847.44;5177041;28;20058;-74
2022/10/15 00:52:48;;;;;;;6.68;4.60;;;;;;;13.65;100.00;99842.75;5162911;28;20514;-74
2022/10/15 00:55:40;;;;;;;7.10;4.38;;;;;;;13.53;100.00;99840.84;5158869;28;20125;-74
2022/10/15 00:58:14;;;;;;;6.88;4.55;;;;;;;13.53;100.00;99840.84;5179020;28;20037;-74
2022/10/15 01:00:44;;;;;;;6.93;4.70;;;;;;;13.50;100.00;99834.03;5181689;28;20443;-73
2022/10/15 01:03:15;;;;;;;6.90;4.90;;;;;;;13.46;100.00;99831.66;5160262;28;20064;-73
2022/10/15 01:05:49;;;;;;;5.97;4.82;;;;;;;13.48;100.00;99838.53;5176033;28;20080;-72
2022/10/15 01:08:20;;;;;;;5.53;4.25;;;;;;;13.50;100.00;99833.16;5175031;28;20513;-73
2022/10/15 01:11:19;;;;;;;8.90;4.65;;;;;;;13.51;100.00;99830.47;5173125;28;20025;-73
2022/10/15 01:14:00;;;;;;;5.95;4.38;;;;;;;13.51;100.00;99834.84;5175749;28;20514;-73
2022/10/15 01:17:09;;;;;;;5.60;4.35;;;;;;;13.52;100.00;99823.41;5176938;28;20030;-73
2022/10/15 01:20:01;;;;;;;6.38;4.60;;;;;;;13.51;100.00;99829.59;5163632;28;20045;-73
2022/10/15 01:22:46;;;;;;;6.18;4.70;;;;;;;13.47;100.00;99828.09;5177217;28;20483;-73
2022/10/15 01:25:33;;;;;;;6.60;4.63;;;;;;;13.44;100.00;99831.75;5175623;28;20128;-72
2022/10/15 01:28:38;;;;;;;5.68;4.43;;;;;;;13.42;100.00;99824.91;5179660;28;20531;-73
2022/10/15 01:31:28;;;;;;;7.32;4.55;;;;;;;13.42;100.00;99824.91;5158991;28;20369;-73
2022/10/15 01:34:23;;;;;;;6.32;4.60;;;;;;;13.42;100.00;99825.75;5170203;28;20084;-72
2022/10/15 01:37:02;;;;;;;7.35;5.30;;;;;;;13.41;100.00;99817.97;5175708;28;20053;-73
2022/10/15 01:39:40;;;;;;;9.23;5.28;;;;;;;13.48;100.00;99825.41;5174123;28;20053;-73
2022/10/15 01:42:26;;;;;;;10.02;6.85;;;;;;;13.47;100.00;99818.47;5176596;28;20447;-73
2022/10/15 01:44:59;;;;;;;;;;;;;;;13.38;100.00;99826.03;5176898;28;20503;-72
2022/10/15 01:47:36;;;;;;;9.30;5.43;;;;;;;13.38;100.00;99818.97;5179106;28;19924;-73
2022/10/15 01:50:11;;;;;;;7.68;4.72;;;;;;;13.44;100.00;99815.16;5178956;28;20037;-73
2022/10/15 01:52:43;;;;;;;7.22;5.30;;;;;;;13.38;100.00;99813.75;5179491;28;20407;-73
2022/10/15 01:55:15;;;;;;;7.65;5.50;;;;;;;13.40;100.00;99814.47;5161325;28;20030;-73
2022/10/15 01:57:47;;;;;;;6.30;4.47;;;;;;;13.38;100.00;99812.91;5179343;28;20711;-73
2022/10/15 02:00:18;;;;;;;8.02;4.90;;;;;;;13.37;100.00;99813.84;5175689;28;20554;-73
2022/10/15 02:02:48;;;;;;;8.75;5.50;;;;;;;13.31;100.00;99817.66;5172582;28;20025;-73
2022/10/15 02:05:28;;;;;;;8.65;4.72;;;;;;;13.33;100.00;99815.78;5173089;28;20038;-73
2022/10/15 02:08:32;;;;;;;7.18;4.80;;;;;;;13.28;100.00;99809.13;5178345;28;20029;-73
2022/10/15 02:11:17;;;;;;;7.75;4.63;;;;;;;13.32;100.00;99808.00;5170190;28;20485;-73
2022/10/15 02:14:07;;;;;;;6.78;4.82;;;;;;;13.25;100.00;99797.00;5175576;28;20026;-73
2022/10/15 02:17:18;;;;;;;7.88;5.05;;;;;;;13.27;100.00;99799.56;5178477;28;20025;-73
2022/10/15 02:19:55;;;;;;;8.77;4.93;;;;;;;13.17;100.00;99799.25;5099761;29;20118;-73
2022/10/15 02:22:49;;;;;;;8.38;4.85;;;;;;;13.20;100.00;99795.63;5115194;29;20039;-73
2022/10/15 02:25:23;;;;;;;7.20;5.35;;;;;;;13.13;100.00;99800.38;5160564;28;20053;-73
2022/10/15 02:27:57;;;;;;;7.00;5.50;;;;;;;13.13;100.00;99799.50;5182064;28;20024;-73
2022/10/15 02:30:28;;;;;;;8.85;6.68;;;;;;;13.14;100.00;99791.56;5182193;28;20044;-73
2022/10/15 02:32:59;;;;;;;16.73;13.18;;;;;;;13.27;100.00;99791.69;5175473;28;20276;-73
2022/10/15 02:35:31;;;;;;;13.52;8.98;;;;;;;13.24;100.00;99778.75;5159682;28;20132;-73
2022/10/15 02:38:06;;;;;;;7.78;5.63;;;;;;;13.30;100.00;99776.63;5179289;28;20030;-73
2022/10/15 02:40:39;;;;;;;11.57;6.03;;;;;;;13.19;100.00;99770.28;5174986;28;20455;-73
2022/10/15 02:43:12;;;;;;;9.13;5.80;;;;;;;13.13;100.00;99781.16;5182954;28;20038;-73
2022/10/15 02:45:43;;;;;;;8.38;5.90;;;;;;;13.13;100.00;99775.91;5182734;28;20028;-73
2022/10/15 02:48:13;;;;;;;10.25;5.53;;;;;;;13.18;100.00;99782.56;5182004;28;20034;-73
2022/10/15 02:50:44;;;;;;;11.02;5.93;;;;;;;13.16;100.00;99786.22;5181997;28;20522;-73
2022/10/15 02:53:14;;;;;;;11.85;6.25;;;;;;;13.17;100.00;99783.50;5182145;28;20387;-73
2022/10/15 02:55:45;;;;;;;7.22;5.38;;;;;;;13.20;100.00;99779.88;5182341;28;20033;-73
2022/10/15 02:58:16;;;;;;;9.85;5.43;;;;;;;13.17;100.00;99778.28;5164226;28;20025;-73
2022/10/15 03:00:47;;;;;;;13.60;8.93;;;;;;;13.18;100.00;99782.56;5161251;28;20057;-73
2022/10/15 03:03:17;;;;;;;8.35;6.22;;;;;;;13.22;100.00;99778.00;5174922;28;20052;-73
2022/10/15 03:05:48;;;;;;;8.88;6.50;;;;;;;13.18;100.00;99776.47;5182551;28;20034;-73
2022/10/15 03:08:18;;;;;;;8.57;5.55;;;;;;;13.19;100.00;99771.16;5179916;28;20037;-73
2022/10/15 03:10:48;;;;;;;6.70;4.70;;;;;;;13.20;100.00;99772.00;5175237;28;20484;-73
2022/10/15 03:13:19;;;;;;;7.80;5.45;;;;;;;13.09;100.00;99766.53;5181935;28;20025;-73
2022/10/15 03:15:49;;;;;;;10.98;6.10;;;;;;;13.06;100.00;99766.72;5182275;28;20430;-73
2022/10/15 03:18:19;;;;;;;13.60;8.80;;;;;;;13.05;100.00;99773.72;5181478;28;20048;-72
2022/10/15 03:20:54;;;;;;;15.20;9.95;;;;;;;13.07;100.00;99771.03;5182535;28;20480;-73
2022/10/15 03:23:25;;;;;;;10.55;7.28;;;;;;;13.03;100.00;99765.09;5163689;28;20060;-73
2022/10/15 03:25:56;;;;;;;9.55;6.47;;;;;;;13.04;100.00;99773.84;5180837;28;20037;-73
2022/10/15 03:28:26;;;;;;;10.43;6.82;;;;;;;13.03;100.00;99772.16;5181681;28;20022;-72
2022/10/15 03:30:56;;;;;;;10.25;7.25;;;;;;;13.00;100.00;99780.16;5181914;28;20049;-73
2022/10/15 03:33:27;;;;;;;11.77;6.13;;;;;;;13.03;100.00;99778.22;5171246;28;20483;-72
2022/10/15 03:35:57;;;;;;;8.15;5.68;;;;;;;13.08;100.00;99777.97;5179753;28;20026;-73
2022/10/15 03:38:28;;;;;;;9.00;6.20;;;;;;;13.00;100.00;99780.16;5179292;28;20028;-73
2022/10/15 03:40:58;;;;;;;9.50;5.82;;;;;;;12.98;100.00;99782.03;5175441;28;20133;-72
2022/10/15 03:43:28;;;;;;;9.18;6.65;;;;;;;13.00;100.00;99780.16;5181720;28;20467;-72
2022/10/15 03:46:04;;;;;;;9.30;6.70;;;;;;;13.00;100.00;99780.16;5181232;28;20030;-72
2022/10/15 03:48:34;;;;;;;8.70;6.38;;;;;;;12.95;100.00;99782.22;5163620;28;20033;-73
2022/10/15 03:51:04;;;;;;;9.15;6.20;;;;;;;12.93;100.00;99779.69;5181521;28;20473;-72
2022/10/15 03:53:35;;;;;;;10.60;7.10;;;;;;;12.93;100.00;99778.84;5181666;28;20040;-72
2022/10/15 03:56:05;;;;;;;9.10;6.75;;;;;;;12.91;100.00;99781.50;5181503;28;20061;-72
2022/10/15 03:58:36;;;;;;;9.93;7.07;;;;;;;12.86;100.00;99782.72;5180807;28;20080;-72
2022/10/15 04:01:15;;;;;;;10.20;6.68;;;;;;;12.80;100.00;99777.81;5162516;28;20025;-73
2022/10/15 04:03:45;;;;;;;11.25;5.90;;;;;;;12.74;100.00;99782.56;5174229;28;20025;-72
2022/10/15 04:06:16;;;;;;;8.48;6.22;;;;;;;12.67;100.00;99787.31;5180964;28;20030;-73
2022/10/15 04:08:46;;;;;;;8.60;5.90;;;;;;;12.62;100.00;99791.16;5175564;28;20037;-73
2022/10/15 04:11:16;;;;;;;9.43;6.28;;;;;;;12.55;100.00;99788.03;5158300;28;20570;-73
2022/10/15 04:13:48;;;;;;;8.82;5.70;;;;;;;12.39;100.00;99788.94;5181348;28;20041;-73
2022/10/15 04:16:19;;;;;;;7.13;5.50;;;;;;;12.27;100.00;99790.47;5180780;28;20034;-72
2022/10/15 04:18:49;;;;;;;9.77;4.00;;;;;;;12.25;100.00;99789.72;5180585;28;20026;-73
2022/10/15 04:21:20;;;;;;;15.48;2.90;;;;;;;12.18;100.00;99796.22;5180824;28;20041;-72
2022/10/15 04:23:50;;;;;;;5.00;3.70;;;;;;;12.23;100.00;99793.34;5181169;28;20029;-73
2022/10/15 04:26:21;;;;;;;4.57;3.15;;;;;;;12.15;100.00;99792.91;5162897;28;20038;-73
2022/10/15 04:28:51;;;;;;;5.03;3.30;;;;;;;12.02;100.00;99794.50;5181274;28;20036;-73
2022/10/15 04:31:21;;;;;;;4.55;3.60;;;;;;;11.90;100.00;99798.63;5177882;28;20037;-73
2022/10/15 04:33:51;;;;;;;6.95;4.50;;;;;;;11.93;100.00;99798.47;5171298;28;20498;-73
2022/10/15 04:36:22;;;;;;;7.80;4.68;;;;;;;11.87;100.00;99800.56;5180385;28;20022;-73
2022/10/15 04:38:52;;;;;;;6.60;4.80;;;;;;;11.79;100.00;99795.72;5179478;28;20360;-72
2022/10/15 04:41:22;;;;;;;6.82;4.32;;;;;;;11.79;100.00;99800.97;5173769;28;20025;-73
2022/10/15 04:43:53;;;;;;;7.55;5.05;;;;;;;11.74;100.00;99797.75;5180304;28;20030;-73
2022/10/15 04:46:23;;;;;;;7.82;5.10;;;;;;;11.72;100.00;99799.59;5162654;28;20216;-72
2022/10/15 04:48:56;;;;;;;8.30;5.47;;;;;;;11.69;100.00;99799.75;5180410;28;20038;-72
2022/10/15 04:51:26;;;;;;;7.75;5.70;;;;;;;11.73;100.00;99810.91;5180891;28;20110;-73
2022/10/15 04:53:57;;;;;;;7.93;5.88;;;;;;;11.69;100.00;99809.38;5180689;28;20555;-73
2022/10/15 04:56:27;;;;;;;7.72;5.43;;;;;;;11.65;100.00;99806.06;5179990;28;20026;-72
2022/10/15 04:58:57;;;;;;;7.70;5.03;;;;;;;11.68;100.00;99808.53;5180193;28;20021;-73
2022/10/15 05:01:28;;;;;;;7.38;5.70;;;;;;;11.65;100.00;99806.06;5176856;28;20621;-73
2022/10/15 05:03:58;;;;;;;7.55;5.68;;;;;;;11.57;100.00;99818.72;5157212;28;20042;-73
2022/10/15 05:06:28;;;;;;;9.98;5.80;;;;;;;11.56;100.00;99810.94;5179748;28;20037;-73
2022/10/15 05:09:00;;;;;;;8.77;5.80;;;;;;;11.55;100.00;99815.31;5178396;28;20029;-73
2022/10/15 05:11:30;;;;;;;10.02;5.93;;;;;;;11.61;100.00;99819.41;5173915;28;20567;-73
2022/10/15 05:14:01;;;;;;;9.40;6.75;;;;;;;11.68;100.00;99808.53;5180243;28;20172;-73
2022/10/15 05:16:31;;;;;;;9.50;6.13;;;;;;;11.79;100.00;99821.91;5179587;28;20607;-73
2022/10/15 05:19:05;;;;;;;11.43;6.00;;;;;;;11.74;100.00;99823.06;5178777;28;20030;-73
2022/10/15 05:21:36;;;;;;;7.75;6.05;;;;;;;11.74;100.00;99829.16;5179805;28;20112;-73
2022/10/15 05:24:06;;;;;;;12.55;7.80;;;;;;;11.71;100.00;99831.94;5179431;28;20172;-73
2022/10/15 05:26:37;;;;;;;14.13;7.80;;;;;;;11.70;100.00;99829.38;5179015;28;20128;-73
2022/10/15 05:29:08;;;;;;;10.63;7.15;;;;;;;11.68;100.00;99824.25;5175031;28;20022;-73
2022/10/15 05:31:38;;;;;;;23.77;7.35;;;;;;;11.63;100.00;99820.19;5175329;28;20205;-72
2022/10/15 05:34:08;;;;;;;36.03;8.65;;;;;;;11.59;100.00;99816.03;5171937;28;20350;-73
2022/10/15 05:36:39;;;;;;;12.10;6.20;;;;;;;11.52;100.00;99817.22;5161406;28;20041;-73
2022/10/15 05:39:11;;;;;;;43.15;6.13;;;;;;;11.54;100.00;99816.22;5176934;28;20038;-73
2022/10/15 05:41:41;;;;;;;26.48;4.88;;;;;;;11.54;100.00;99825.84;5174017;28;20033;-73
2022/10/15 05:44:11;;;;;;;21.30;4.78;;;;;;;11.52;100.00;99828.53;5175868;28;20026;-72
2022/10/15 05:46:42;;;;;;;22.05;4.57;;;;;;;11.49;100.00;99833.09;5178669;28;20705;-72
2022/10/15 05:49:12;;;;;;;12.30;5.20;;;;;;;11.43;100.00;99830.78;5179280;28;20025;-73
2022/10/15 05:51:42;;;;;;;27.77;4.10;;;;;;;11.28;100.00;99832.38;5175872;28;20547;-73
2022/10/15 05:54:12;;;;;;;16.30;4.30;;;;;;;11.32;100.00;99830.47;5172828;28;20053;-73
2022/10/15 05:56:43;;;;;;;5.90;4.50;;;;;;;11.40;100.00;99831.78;5179251;28;20380;-73
2022/10/15 05:59:13;;;;;;;10.52;5.75;;;;;;;11.38;100.00;99827.53;5179146;28;20226;-73
2022/10/15 06:01:43;;;;;;;8.07;5.70;;;;;;;11.37;100.00;99841.53;5173618;28;20428;-72
2022/10/15 06:04:14;;;;;;;10.90;5.38;;;;;;;11.46;100.00;99839.31;5171371;28;20049;-72
2022/10/15 06:06:45;;;;;;;8.68;6.07;;;;;;;11.42;100.00;99839.56;5178910;28;20030;-73
2022/10/15 06:09:15;;;;;;;7.43;5.38;;;;;;;11.49;100.00;99839.19;5178068;28;20037;-73
2022/10/15 06:11:45;;;;;;;14.23;4.45;;;;;;;11.10;100.00;99846.38;5178481;28;20038;-73
2022/10/15 06:14:16;;;;;;;9.38;5.47;;;;;;;11.05;100.00;99850.13;5175735;28;20121;-72
2022/10/15 06:16:49;;;;;;;9.10;5.57;;;;;;;11.20;100.00;99860.72;5169168;28;20018;-72
2022/10/15 06:19:20;;;;;;;8.13;5.10;;;;;;;11.26;100.00;99863.00;5171539;28;20552;-73
2022/10/15 06:21:50;;;;;;;7.45;5.03;;;;;;;11.39;100.00;99861.47;5158767;28;20030;-73
2022/10/15 06:24:21;;;;;;;8.70;5.32;;;;;;;11.42;100.00;99860.50;5172947;28;20518;-72
2022/10/15 06:26:51;;;;;;;6.97;5.05;;;;;;;11.57;100.00;99851.88;5178699;28;20061;-72
2022/10/15 06:29:21;;;;;;;7.38;5.20;;;;;;;11.59;100.00;99848.25;5178749;28;20026;-73
2022/10/15 06:31:52;;;;;;;8.20;5.28;;;;;;;11.64;100.00;99848.88;5177884;28;20057;-73
2022/10/15 06:34:22;;;;;;;8.02;5.32;;;;;;;11.64;100.00;99864.56;5174150;28;20446;-72
2022/10/15 06:36:52;;;;;;;8.70;5.75;;;;;;;11.86;100.00;99869.56;5178195;28;20045;-73
2022/10/15 06:39:23;;;;;;;8.80;5.35;;;;;;;11.98;100.00;99869.75;5178569;28;20411;-72
2022/10/15 06:41:53;;;;;;;9.38;5.72;;;;;;;11.94;100.00;99870.03;5179359;28;20083;-73
2022/10/15 06:44:23;;;;;;;8.75;5.97;;;;;;;12.03;100.00;99865.13;5179213;28;20041;-72
2022/10/15 06:46:54;;;;;;;7.43;5.60;;;;;;;12.08;100.00;99875.34;5179087;28;20022;-72
2022/10/15 06:49:24;;;;;;;8.50;5.00;;;;;;;12.19;100.00;99871.25;5178703;28;20100;-72
2022/10/15 06:51:54;;;;;;;7.38;5.38;;;;;;;12.03;100.00;99877.38;5177353;28;20072;-73
2022/10/15 06:54:25;;;;;;;8.60;4.78;;;;;;;12.09;100.00;99877.91;5171153;28;20055;-72
2022/10/15 06:56:55;;;;;;;7.40;4.90;;;;;;;12.15;100.00;99881.97;5176920;28;20018;-73
2022/10/15 06:59:25;;;;;;;8.20;4.88;;;;;;;12.16;100.00;99894.16;5178157;28;20361;-73
2022/10/15 07:01:56;;;;;;;6.25;4.57;;;;;;;12.39;100.00;99881.50;5175556;28;20044;-72
2022/10/15 07:04:26;;;;;;;5.78;4.60;;;;;;;12.43;100.00;99890.91;5172969;28;20029;-72
2022/10/15 07:06:56;;;;;;;5.88;4.50;;;;;;;12.43;100.00;99883.03;5178733;28;20036;-73
2022/10/15 07:09:26;;;;;;;6.47;4.88;;;;;;;12.47;100.00;99888.97;5178757;28;20373;-72
2022/10/15 07:11:57;;;;;;;7.07;5.20;;;;;;;12.54;100.00;99895.56;5179052;28;20022;-72
2022/10/15 07:14:27;;;;;;;7.03;5.15;;;;;;;12.71;100.00;99900.72;5183107;28;20092;-73
2022/10/15 07:16:58;;;;;;;8.73;5.60;;;;;;;12.52;100.00;99898.28;5182095;28;20026;-72
2022/10/15 07:19:28;;;;;;;9.65;6.40;;;;;;;12.45;100.00;99893.44;5182790;28;20116;-72
2022/10/15 07:21:59;;;;;;;9.82;6.53;;;;;;;12.62;100.00;99894.22;5181720;28;20021;-73
2022/10/15 07:24:29;;;;;;;15.43;8.18;;;;;;;12.68;100.00;99893.91;5180318;28;20034;-72
2022/10/15 07:26:59;;;;;;;10.30;7.32;;;;;;;12.74;100.00;99893.53;5182258;28;20029;-72
2022/10/15 07:29:30;;;;;;;9.63;7.13;;;;;;;12.69;100.00;99900.81;5182350;28;20064;-72
2022/10/15 07:32:00;;;;;;;10.50;6.93;;;;;;;12.89;100.00;99903.19;5176641;28;20026;-73
2022/10/15 07:34:30;;;;;;;10.55;7.57;;;;;;;13.05;100.00;99904.88;5176025;28;20377;-73
2022/10/15 07:37:01;;;;;;;14.40;7.18;;;;;;;13.09;100.00;99900.31;5181895;28;20126;-72
2022/10/15 07:39:31;;;;;;;13.77;8.52;;;;;;;13.19;100.00;99898.84;5182490;28;20037;-73
2022/10/15 07:42:01;;;;;;;10.63;7.43;;;;;;;13.36;100.00;99899.59;5182467;28;20109;-73
2022/10/15 07:44:31;;;;;;;11.50;7.78;;;;;;;13.66;100.00;99908.31;5163379;28;20465;-73
2022/10/15 07:47:02;;;;;;;11.00;7.38;;;;;;;13.78;100.00;99902.31;5181245;28;20029;-73
2022/10/15 07:49:32;;;;;;;11.07;7.75;;;;;;;13.78;100.00;99898.88;5181266;28;20498;-73
2022/10/15 07:52:02;;;;;;;11.82;7.97;;;;;;;14.15;100.00;99907.09;5181548;28;20515;-73
2022/10/15 07:54:33;;;;;;;12.38;8.00;;;;;;;14.39;100.00;99900.34;5177288;28;20112;-73
2022/10/15 07:57:05;;;;;;;12.45;7.90;;;;;;;15.23;100.00;99901.03;5181544;28;20052;-73
2022/10/15 07:59:36;;;;;;;9.13;7.00;;;;;;;15.89;100.00;99901.84;5181305;28;20033;-73
2022/10/15 08:02:17;;;;;;;7.88;5.75;;;;;;;15.55;100.00;99901.59;5176151;28;20037;-73
2022/10/15 08:04:47;;;;;;;9.50;6.72;;;;;;;15.51;100.00;99902.75;5177003;28;20030;-73
2022/10/15 08:07:17;;;;;;;9.32;6.45;;;;;;;15.38;100.00;99901.84;5181508;28;20112;-73
2022/10/15 08:09:47;;;;;;;7.35;6.03;;;;;;;15.22;100.00;99915.13;5181167;28;20026;-73
2022/10/15 08:12:18;;;;;;;9.45;6.32;;;;;;;15.63;100.00;99904.53;5177657;28;20030;-73
2022/10/15 08:14:48;;;;;;;7.35;5.63;;;;;;;16.06;100.00;99900.69;5181672;28;20483;-73
2022/10/15 08:17:18;;;;;;;8.90;6.63;;;;;;;16.92;100.00;99902.41;5181045;28;20048;-73
2022/10/15 08:19:49;;;;;;;9.55;6.68;;;;;;;17.96;100.00;99895.44;5175081;28;20104;-74
2022/10/15 08:22:19;;;;;;;8.93;6.47;;;;;;;19.24;100.00;99886.88;5170576;28;20033;-73
2022/10/15 08:24:51;;;;;;;8.82;6.20;;;;;;;20.01;96.34;99883.84;5173667;28;20033;-73
2022/10/15 08:27:21;;;;;;;7.20;5.53;;;;;;;19.56;97.81;99903.63;5178646;28;20033;-73
2022/10/15 08:29:51;;;;;;;8.05;6.03;;;;;;;18.46;100.00;99910.06;5179726;28;20025;-73
2022/10/15 08:32:22;;;;;;;12.23;7.18;;;;;;;17.60;100.00;99910.56;5173307;28;20069;-73
2022/10/15 08:34:52;;;;;;;8.32;6.40;;;;;;;17.21;100.00;99914.34;5175005;28;20021;-73
2022/10/15 08:37:22;;;;;;;9.68;6.78;;;;;;;17.22;100.00;99907.25;5161838;28;20050;-73
2022/10/15 08:39:53;;;;;;;8.73;6.63;;;;;;;17.17;100.00;99912.03;5180089;28;20014;-73
2022/10/15 08:42:34;;;;;;;9.57;6.93;;;;;;;18.29;100.00;99900.81;5179817;28;20030;-73
2022/10/15 08:45:12;;;;;;;8.82;6.25;;;;;;;17.70;100.00;99916.88;5179077;28;20490;-73
2022/10/15 08:47:47;;;;;;;10.32;6.65;;;;;;;17.35;100.00;99923.94;5179780;28;20033;-73
2022/10/15 08:50:34;;;;;;;9.25;5.75;;;;;;;17.25;100.00;99915.81;5175468;28;20033;-73
2022/10/15 08:53:05;;;;;;;9.50;7.00;;;;;;;16.83;100.00;99918.06;5172754;28;20443;-73
2022/10/15 08:55:39;;;;;;;10.15;6.68;;;;;;;16.72;100.00;99915.31;5178460;28;20420;-73
2022/10/15 08:58:12;;;;;;;13.10;8.05;;;;;;;16.55;100.00;99920.13;5177202;28;20046;-73
2022/10/15 09:00:56;;;;;;;11.75;8.68;;;;;;;16.26;100.00;99921.25;5177701;28;20022;-73
2022/10/15 09:04:01;;;;;;;10.73;8.10;;;;;;;16.67;100.00;99911.31;5178139;28;20037;-73
2022/10/15 09:06:39;;;;;;;10.30;7.80;;;;;;;16.77;100.00;99924.59;5176428;28;20038;-73
2022/10/15 09:09:21;;;;;;;16.30;9.05;;;;;;;16.79;100.00;99930.63;5159636;28;20048;-73
2022/10/15 09:12:28;;;;;;;10.27;7.80;;;;;;;16.85;100.00;99917.00;5177426;28;20038;-73
2022/10/15 09:14:59;;;;;;;10.02;7.50;;;;;;;16.77;100.00;99922.94;5176283;28;20029;-73
2022/10/15 09:17:32;;;;;;;13.85;8.68;;;;;;;17.07;100.00;99926.84;5177121;28;20065;-73
2022/10/15 09:20:12;;;;;;;14.70;8.57;;;;;;;16.73;100.00;99911.72;5176845;28;20474;-73
2022/10/15 09:22:43;;;;;;;13.10;9.30;;;;;;;16.66;100.00;99915.78;5171857;28;20381;-73
2022/10/15 09:25:16;;;;;;;11.55;8.65;;;;;;;16.70;100.00;99916.41;5176733;28;20022;-73
2022/10/15 09:27:48;;;;;;;11.02;8.38;;;;;;;16.75;100.00;99915.09;5177816;28;20033;-73
2022/10/15 09:30:34;;;;;;;13.68;8.88;;;;;;;16.81;100.00;99918.16;5175024;28;20030;-73
2022/10/15 09:33:14;;;;;;;12.38;9.35;;;;;;;16.74;100.00;99912.59;5170722;28;20029;-73
2022/10/15 09:35:51;;;;;;;12.60;9.23;;;;;;;16.73;100.00;99908.28;5167730;28;20026;-73
2022/10/15 09:38:34;;;;;;;13.38;9.05;;;;;;;16.80;100.00;99919.09;5176540;28;20107;-73
2022/10/15 09:41:28;;;;;;;13.57;9.65;;;;;;;16.77;100.00;99912.38;5175452;28;20476;-73
2022/10/15 09:44:00;;;;;;;13.35;10.32;;;;;;;16.69;100.00;99918.19;5177192;28;20041;-73
2022/10/15 09:46:31;;;;;;;15.98;11.02;;;;;;;16.75;100.00;99912.47;5176958;28;20036;-73
2022/10/15 09:49:07;;;;;;;13.85;10.50;;;;;;;17.34;100.00;99911.66;5178316;28;20038;-73
2022/10/15 09:51:49;;;;;;;13.60;10.10;;;;;;;17.54;100.00;99921.59;5177534;28;20418;-73
2022/10/15 09:54:35;;;;;;;17.90;10.23;;;;;;;17.52;100.00;99912.94;5171390;28;20514;-73
2022/10/15 09:57:09;;;;;;;13.13;10.60;;;;;;;18.14;100.00;99917.81;5178992;28;20057;-73
2022/10/15 09:59:54;;;;;;;14.07;10.23;;;;;;;18.13;100.00;99907.34;5177821;28;20038;-73
2022/10/15 10:02:26;;;;;;;11.77;9.50;;;;;;;18.30;100.00;99917.50;5174052;28;20447;-72
2022/10/15 10:04:56;;;;;;;14.88;10.13;;;;;;;18.19;100.00;99917.47;5174391;28;20611;-73
2022/10/15 10:07:35;;;;;;;13.63;9.88;;;;;;;17.99;100.00;99907.59;5178539;28;20041;-73
2022/10/15 10:10:28;;;;;;;12.90;8.82;;;;;;;17.95;100.00;99906.97;5178610;28;20053;-73
2022/10/15 10:12:59;;;;;;;12.52;9.15;;;;;;;18.02;100.00;99902.88;5176612;28;20026;-73
2022/10/15 10:15:29;;;;;;;12.57;8.20;;;;;;;17.87;100.00;99903.22;5140473;28;20042;-73
2022/10/15 10:18:01;;;;;;;10.55;7.63;;;;;;;17.98;100.00;99900.59;5178903;28;20105;-73
2022/10/15 10:20:33;;;;;;;12.27;8.40;;;;;;;17.77;100.00;99916.28;5178862;28;20523;-73
2022/10/15 10:23:22;;;;;;;10.98;7.78;;;;;;;17.57;100.00;99929.31;5172890;28;20533;-73
2022/10/15 10:25:55;;;;;;;10.55;7.25;;;;;;;17.64;100.00;99928.72;5173951;28;20431;-73
2022/10/15 10:28:46;;;;;;;10.68;7.53;;;;;;;17.55;100.00;99931.22;5176790;28;20030;-73
2022/10/15 10:31:25;;;;;;;9.07;6.90;;;;;;;17.49;100.00;99934.31;5172944;28;20442;-73
2022/10/15 10:33:59;;;;;;;8.68;6.80;;;;;;;17.59;100.00;99924.75;5171699;28;20400;-73
2022/10/15 10:36:34;;;;;;;8.90;6.10;;;;;;;17.72;100.00;99930.81;5173240;28;20530;-72
2022/10/15 10:39:23;;;;;;;8.18;6.28;;;;;;;17.80;100.00;99921.34;5176247;28;20336;-73
2022/10/15 10:41:59;;;;;;;9.23;6.75;;;;;;;17.96;100.00;99923.66;5175326;28;20061;-73
2022/10/15 10:44:30;;;;;;;8.18;6.05;;;;;;;17.85;100.00;99913.06;5176142;28;20029;-72
2022/10/15 10:47:07;;;;;;;7.55;5.70;;;;;;;17.79;100.00;99914.38;5176020;28;20088;-72
2022/10/15 10:49:41;;;;;;;9.85;5.38;;;;;;;17.71;100.00;99916.75;5162400;28;20120;-72
2022/10/15 10:52:34;;;;;;;5.97;4.27;;;;;;;17.65;100.00;99919.03;5179569;28;20099;-72
2022/10/15 10:55:37;;;;;;;5.50;4.10;;;;;;;17.57;100.00;99913.44;5178985;28;20274;-72
2022/10/15 10:58:16;;;;;;;5.85;4.30;;;;;;;17.48;100.00;99916.78;5180587;28;20132;-72
2022/10/15 11:00:51;;;;;;;6.40;4.30;;;;;;;17.37;100.00;99914.09;5183086;28;20032;-72
2022/10/15 11:03:49;;;;;;;7.00;4.55;;;;;;;17.33;100.00;99915.25;5174028;28;20529;-72
2022/10/15 11:06:31;;;;;;;6.18;3.55;;;;;;;17.34;100.00;99909.03;5177809;28;20046;-72
2022/10/15 11:09:20;;;;;;;5.18;3.60;;;;;;;17.36;100.00;99909.75;5164829;28;20038;-72
2022/10/15 11:12:04;;;;;;;4.88;3.47;;;;;;;17.41;100.00;99912.91;5178382;28;20518;-72
2022/10/15 11:14:45;;;;;;;4.70;3.42;;;;;;;17.67;100.00;99903.88;5181017;28;20116;-72
2022/10/15 11:17:39;;;;;;;6.15;3.63;;;;;;;17.86;100.00;99906.81;5182267;28;20072;-73
2022/10/15 11:20:15;;;;;;;4.88;3.30;;;;;;;17.86;100.00;99902.34;5182693;28;20805;-71
2022/10/15 11:22:59;;;;;;;3.78;2.83;;;;;;;17.98;100.00;99914.66;5177507;28;20101;-72
2022/10/15 11:25:32;;;;;;;3.83;2.80;;;;;;;17.93;100.00;99914.19;5178681;28;20407;-72
2022/10/15 11:28:25;;;;;;;4.70;2.58;;;;;;;18.10;100.00;99907.59;5182409;28;20402;-72
2022/10/15 11:31:07;;;;;;;4.53;2.80;;;;;;;18.10;100.00;99905.78;5180105;28;20026;-72
2022/10/15 11:33:54;;;;;;;3.75;2.60;;;;;;;18.10;100.00;99904.94;5177917;28;20434;-72
2022/10/15 11:36:36;;;;;;;3.22;2.63;;;;;;;18.10;100.00;99897.84;5178342;28;20483;-71
2022/10/15 11:39:25;;;;;;;3.55;2.00;;;;;;;18.09;100.00;99890.88;5182733;28;20034;-72
2022/10/15 11:42:07;;;;;;;3.42;1.77;;;;;;;18.15;100.00;99894.88;5179861;28;20052;-71
2022/10/15 11:45:11;;;;;;;2.00;1.50;;;;;;;18.26;100.00;99881.63;5182419;28;20091;-72
2022/10/15 11:47:53;;;;;;;2.80;1.38;;;;;;;18.15;100.00;99886.94;5181588;28;20026;-73
2022/10/15 11:50:53;;;;;;;2.30;1.67;;;;;;;18.10;100.00;99889.06;5179483;28;20325;-71
2022/10/15 11:54:01;;;;;;;2.13;1.33;;;;;;;18.13;100.00;99891.47;5174557;28;20116;-71
2022/10/15 11:56:37;;;;;;;2.33;1.30;;;;;;;18.05;100.00;99880.66;5180066;28;20392;-71
2022/10/15 11:59:29;;;;;;;1.05;0.80;;;;;;;18.23;99.41;99873.94;5181621;28;20036;-72